Terminal Aerodrome Forecast
Issued by NWS

Home | Current Version | Previous Version | Text Only | Print | Product List | Glossary On
Versions: 1 2 3 4 5 6 7 8 9 10 11 12 13 14
000
FTUS45 KRIW 071123
TAFPNA
TAF
KPNA 071123Z 0712/0812 VRB05KT P6SM -SN SCT015 BKN040
      TEMPO 0712/0714 5SM -SN BKN015
     FM071500 VRB05KT P6SM SCT025 BKN040
     FM080200 30005KT P6SM FEW005 SCT250
      AMD LTD TO CLD VIS AND WIND=

USA.gov is the U.S. government's official web portal to all federal, state and local government web resources and services.